ADDS METAR Data INFO
IDs: Format: Raw Decoded Include TAF

Data at: 1544 UTC 12 Dec 2017

KCQF 121535Z AUTO 35006G16KT 310V020 10SM CLR 12/02 A3012 RMK AO2
KCQF 121515Z AUTO 35008G16KT 310V010 10SM CLR 12/02 A3012 RMK AO2
KCQF 121455Z AUTO 33008G15KT 10SM CLR 11/03 A3011 RMK AO2
KCQF 121435Z AUTO 35008KT 10SM CLR 11/04 A3010 RMK AO2
KCQF 121415Z AUTO 34012G17KT 10SM CLR 11/05 A3009 RMK AO2
KCQF 121355Z AUTO 33008KT 10SM CLR 10/05 A3008 RMK AO2
KCQF 121335Z AUTO 32006KT 10SM CLR 10/06 A3008 RMK AO2
KCQF 121315Z AUTO 31005KT 10SM CLR 09/06 A3007 RMK AO2
KCQF 121255Z AUTO 30007G14KT 270V330 10SM CLR 09/06 A3006 RMK AO2
KCQF 121235Z AUTO 30007KT 10SM CLR 09/06 A3005 RMK AO2
KCQF 121215Z AUTO 29005KT 10SM CLR 09/07 A3004 RMK AO2
KCQF 121155Z AUTO 27005KT 10SM CLR 10/07 A3004 RMK AO2
KCQF 121135Z AUTO 27007KT 10SM CLR 10/07 A3003 RMK AO2
KCQF 121115Z AUTO 27007KT 10SM CLR 10/08 A3003 RMK AO2
KCQF 121055Z AUTO 27006KT 10SM CLR 10/08 A3002 RMK AO2
KCQF 121035Z AUTO 26006KT 10SM CLR 10/08 A3002 RMK AO2
KCQF 121015Z AUTO 26006KT 10SM CLR 10/08 A3002 RMK AO2
KCQF 120955Z AUTO 26006KT 10SM CLR 10/08 A3002 RMK AO2
KCQF 120935Z AUTO 25005KT 10SM CLR 10/09 A3003 RMK AO2
KCQF 120915Z AUTO 24005KT 10SM CLR 10/09 A3003 RMK AO2
KCQF 120855Z AUTO 25006KT 10SM CLR 10/08 A3004 RMK AO2
KCQF 120835Z AUTO 25004KT 10SM CLR 10/08 A3004 RMK AO2
KCQF 120815Z AUTO 00000KT 10SM CLR 10/08 A3004 RMK AO2
KCQF 120755Z AUTO 00000KT 10SM CLR 10/08 A3005 RMK AO2
KCQF 120735Z AUTO 25003KT 10SM CLR 10/08 A3006 RMK AO2
KCQF 120715Z AUTO 24004KT 10SM CLR 10/08 A3006 RMK AO2
KCQF 120655Z AUTO 25004KT 10SM CLR 11/09 A3007 RMK AO2
KCQF 120635Z AUTO 25006KT 10SM CLR 11/10 A3008 RMK AO2
KCQF 120615Z AUTO 24006KT 10SM CLR 11/10 A3008 RMK AO2
KCQF 120555Z AUTO 24007KT 10SM CLR 11/10 A3008 RMK AO2
KCQF 120535Z AUTO 24006KT 10SM CLR 11/10 A3008 RMK AO2
KCQF 120515Z AUTO 24006KT 10SM CLR 11/10 A3009 RMK AO2
KCQF 120455Z AUTO 25006KT 10SM CLR 11/10 A3010 RMK AO2
KCQF 120435Z AUTO 25006KT 10SM CLR 11/11 A3010 RMK AO2
KCQF 120415Z AUTO 25006KT 10SM CLR 11/11 A3011 RMK AO2
KCQF 120355Z AUTO 25007KT 10SM CLR 11/10 A3011 RMK AO2
KCQF 120335Z AUTO 26006KT 10SM CLR 11/11 A3012 RMK AO2
KCQF 120315Z AUTO 24004KT 10SM CLR 11/11 A3012 RMK AO2
KCQF 120255Z AUTO 24004KT 10SM CLR 12/10 A3012 RMK AO2
KCQF 120235Z AUTO 24006KT 10SM CLR 12/10 A3012 RMK AO2
KCQF 120215Z AUTO 24006KT 10SM CLR 12/09 A3012 RMK AO2
KCQF 120155Z AUTO 23006KT 10SM CLR 12/09 A3012 RMK AO2
KCQF 120135Z AUTO 23004KT 10SM CLR 12/09 A3012 RMK AO2
KCQF 120115Z AUTO 23004KT 10SM CLR 11/10 A3012 RMK AO2
KCQF 120055Z AUTO 23004KT 10SM CLR 11/10 A3013 RMK AO2
KCQF 120035Z AUTO 22003KT 10SM CLR 11/10 A3014 RMK AO2
KCQF 120015Z AUTO 24004KT 10SM CLR 10/10 A3014 RMK AO2
KCQF 112355Z AUTO 00000KT 10SM CLR 10/10 A3014 RMK AO2
KCQF 112335Z AUTO 00000KT 10SM CLR 10/09 A3014 RMK AO2
KCQF 112315Z AUTO 00000KT 10SM CLR 11/08 A3013 RMK AO2
KCQF 112255Z AUTO 23004KT 10SM CLR 11/08 A3013 RMK AO2
KCQF 112235Z AUTO 24005KT 10SM CLR 12/07 A3014 RMK AO2
KCQF 112215Z AUTO 23004KT 10SM CLR 13/07 A3014 RMK AO2
KCQF 112155Z AUTO 24006KT 10SM CLR 13/06 A3014 RMK AO2
KCQF 112135Z AUTO 24005KT 10SM CLR 13/06 A3015 RMK AO2
KCQF 112115Z AUTO 23007KT 190V270 10SM CLR 13/06 A3015 RMK AO2
KCQF 112055Z AUTO 23005KT 10SM CLR 13/06 A3016 RMK AO2
KCQF 112035Z AUTO 23008KT 10SM CLR 13/06 A3017 RMK AO2
KCQF 112015Z AUTO 23007KT 210V280 10SM CLR 14/06 A3017 RMK AO2
KCQF 111955Z AUTO 23008KT 190V270 10SM CLR 14/06 A3017 RMK AO2
KCQF 111935Z AUTO 23006KT 10SM CLR 14/06 A3018 RMK AO2
KCQF 111915Z AUTO 23007KT 200V260 10SM CLR 14/06 A3019 RMK AO2
KCQF 111855Z AUTO 24005KT 10SM CLR 14/06 A3020 RMK AO2
KCQF 111835Z AUTO 23008KT 200V260 10SM CLR 14/06 A3021 RMK AO2
KCQF 111815Z AUTO 23007KT 10SM CLR 13/06 A3022 RMK AO2
KCQF 111755Z AUTO 22007KT 200V260 10SM CLR 13/06 A3023 RMK AO2
KCQF 111735Z AUTO 23004KT 10SM CLR 13/06 A3024 RMK AO2
KCQF 111715Z AUTO 20003KT 10SM CLR 13/05 A3025 RMK AO2
KCQF 111655Z AUTO 24004KT 10SM CLR 13/05 A3026 RMK AO2
KCQF 111635Z AUTO 24004KT 10SM CLR 13/05 A3027 RMK AO2
KCQF 111615Z AUTO 27005KT 10SM CLR 12/03 A3028 RMK AO2
KCQF 111555Z AUTO 25005KT 10SM CLR 12/03 A3029 RMK AO2
KCQF 111535Z AUTO 26003KT 10SM CLR 11/03 A3029 RMK AO2
KCQF 111515Z AUTO 24007KT 10SM CLR 11/04 A3029 RMK AO2
KCQF 111455Z AUTO 26004KT 10SM CLR 10/03 A3030 RMK AO2
KCQF 111435Z AUTO 25004KT 10SM CLR 09/03 A3030 RMK AO2
KCQF 111415Z AUTO 00000KT 10SM CLR 07/05 A3030 RMK AO2
KCQF 111355Z AUTO 00000KT 10SM CLR 03/03 A3030 RMK AO2
KCQF 111335Z AUTO 00000KT 10SM CLR 01/01 A3031 RMK AO2
KCQF 111315Z AUTO 00000KT 10SM CLR 00/00 A3031 RMK AO2
KCQF 111255Z AUTO 00000KT 10SM CLR 00/00 A3030 RMK AO2
KCQF 111235Z AUTO 00000KT 10SM CLR 00/00 A3030 RMK AO2
KCQF 111215Z AUTO 00000KT 10SM CLR 00/00 A3030 RMK AO2
KCQF 111155Z AUTO 00000KT 10SM CLR 00/00 A3030 RMK AO2
KCQF 111135Z AUTO 00000KT 10SM CLR 00/00 A3030 RMK AO2
KCQF 111115Z AUTO 00000KT 10SM CLR 00/00 A3029 RMK AO2
KCQF 111055Z AUTO 00000KT 10SM CLR 00/00 A3029 RMK AO2
KCQF 111035Z AUTO 00000KT 10SM CLR M01/M01 A3029 RMK AO2
KCQF 111015Z AUTO 00000KT 10SM CLR 00/00 A3029 RMK AO2
KCQF 110955Z AUTO 00000KT 10SM CLR 00/00 A3029 RMK AO2
KCQF 110935Z AUTO 00000KT 10SM CLR 00/00 A3030 RMK AO2
KCQF 110915Z AUTO 00000KT 10SM CLR 00/00 A3030 RMK AO2
KCQF 110855Z AUTO 00000KT 10SM CLR 00/00 A3030 RMK AO2
KCQF 110835Z AUTO 00000KT 10SM CLR 00/00 A3030 RMK AO2
KCQF 110815Z AUTO 00000KT 10SM CLR M01/M01 A3030 RMK AO2
KCQF 110755Z AUTO 00000KT 7SM CLR 00/00 A3030 RMK AO2
KCQF 110735Z AUTO 00000KT 10SM CLR 00/00 A3031 RMK AO2
KCQF 110715Z AUTO 00000KT 10SM CLR 00/00 A3031 RMK AO2
KCQF 110655Z AUTO 00000KT 10SM CLR 00/00 A3030 RMK AO2
KCQF 110635Z AUTO 00000KT 10SM CLR 00/00 A3031 RMK AO2
KCQF 110615Z AUTO 00000KT 10SM CLR 00/00 A3031 RMK AO2
KCQF 110555Z AUTO 00000KT 10SM CLR 00/00 A3032 RMK AO2
KCQF 110535Z AUTO 00000KT 10SM CLR 00/00 A3032 RMK AO2
KCQF 110515Z AUTO 00000KT 10SM CLR 00/00 A3033 RMK AO2
KCQF 110455Z AUTO 00000KT 10SM CLR 00/00 A3034 RMK AO2
KCQF 110435Z AUTO 00000KT 10SM CLR 00/00 A3035 RMK AO2
KCQF 110415Z AUTO 00000KT 10SM CLR 00/00 A3035 RMK AO2
KCQF 110355Z AUTO 00000KT 10SM CLR 00/00 A3035 RMK AO2